Terminal Aerodrome Forecast
Issued by NWS Topeka, KS

Home | Current Version | Previous Version | Graphics & Text | Print | Product List | Glossary On
Versions: 1 2 3 4 5 6 7 8 9 10 11 12 13 14 15 16 17 18
000
FTUS43 KTOP 240520
TAFTOP
TAF
KTOP 240520Z 2406/2506 14006KT P6SM FEW020 BKN200
     FM240800 15007KT P6SM BKN025
     FM241200 15006KT 6SM SHRA BR VCTS BKN015 OVC050CB
     FM241600 16008KT P6SM SCT025 BKN150=

USA.gov is the U.S. government's official web portal to all federal, state and local government web resources and services.